createdAt,value
2018-10-03T00:02:19.618Z,88.00
2018-10-03T00:04:46.954Z,87.60
2018-10-03T00:07:14.268Z,87.50
2018-10-03T00:09:41.634Z,87.60
2018-10-03T00:12:08.953Z,87.70
2018-10-03T00:14:36.284Z,87.50
2018-10-03T00:17:03.592Z,87.40
2018-10-03T00:19:30.935Z,87.60
2018-10-03T00:21:58.258Z,87.80
2018-10-03T00:24:25.561Z,87.90
2018-10-03T00:26:52.893Z,87.80
2018-10-03T00:29:20.218Z,87.70
2018-10-03T00:31:47.551Z,87.70
2018-10-03T00:34:14.859Z,87.80
2018-10-03T00:36:42.163Z,87.70
2018-10-03T00:39:09.497Z,87.20
2018-10-03T00:41:36.811Z,87.00
2018-10-03T00:44:04.165Z,87.20
2018-10-03T00:46:31.459Z,87.30
2018-10-03T00:48:58.794Z,87.00
2018-10-03T00:51:26.157Z,87.10
2018-10-03T00:53:53.495Z,87.00
2018-10-03T00:56:20.803Z,86.80
2018-10-03T00:58:48.245Z,86.60
2018-10-03T01:01:15.589Z,86.40
2018-10-03T01:03:42.880Z,86.50
2018-10-03T01:06:10.227Z,86.50
2018-10-03T01:08:37.535Z,86.20
2018-10-03T01:11:04.864Z,86.20
2018-10-03T01:13:32.202Z,86.80
2018-10-03T01:15:59.572Z,87.10
2018-10-03T01:18:26.976Z,87.20
2018-10-03T01:20:54.314Z,86.80
2018-10-03T01:23:21.626Z,87.20
2018-10-03T01:25:48.965Z,87.20
2018-10-03T01:28:16.290Z,87.00
2018-10-03T01:30:43.606Z,87.00
2018-10-03T01:33:10.937Z,87.00
2018-10-03T01:35:38.245Z,86.80
2018-10-03T01:38:05.612Z,87.20
2018-10-03T01:40:32.940Z,87.00
2018-10-03T01:43:00.272Z,86.80
2018-10-03T01:45:27.594Z,87.20
2018-10-03T01:47:54.940Z,87.60
2018-10-03T01:50:22.292Z,87.60
2018-10-03T01:52:49.602Z,88.60
2018-10-03T01:55:16.929Z,89.70
2018-10-03T01:57:44.251Z,90.00
2018-10-03T02:00:11.588Z,89.80
2018-10-03T02:02:38.946Z,89.50
2018-10-03T02:05:06.277Z,89.10
2018-10-03T02:07:33.593Z,88.80
2018-10-03T02:10:01.203Z,88.70
2018-10-03T02:12:28.518Z,88.50
2018-10-03T02:14:55.848Z,88.30
2018-10-03T02:17:23.175Z,87.80
2018-10-03T02:19:50.563Z,88.10
2018-10-03T02:22:17.896Z,88.20
2018-10-03T02:24:45.220Z,88.60
2018-10-03T02:27:12.601Z,87.90
2018-10-03T02:29:39.936Z,87.70
2018-10-03T02:32:07.266Z,88.10
2018-10-03T02:34:34.585Z,88.50
2018-10-03T02:37:01.929Z,89.50
2018-10-03T02:39:29.245Z,89.40
2018-10-03T02:41:56.583Z,89.30
2018-10-03T02:44:23.895Z,90.10
2018-10-03T02:46:51.270Z,90.10
2018-10-03T02:49:18.592Z,89.90
2018-10-03T02:51:46.037Z,89.60
2018-10-03T02:54:13.376Z,89.00
2018-10-03T02:56:40.709Z,89.50
2018-10-03T02:59:08.321Z,90.00
2018-10-03T03:01:35.746Z,90.00
2018-10-03T03:04:03.009Z,89.70
2018-10-03T03:06:30.316Z,89.90
2018-10-03T03:08:57.725Z,89.70
2018-10-03T03:11:24.988Z,89.30
2018-10-03T03:13:52.351Z,88.80
2018-10-03T03:16:19.673Z,88.60
2018-10-03T03:18:47.058Z,88.50
2018-10-03T03:21:14.369Z,89.50
2018-10-03T03:23:41.689Z,90.30
2018-10-03T03:26:09.018Z,91.10
2018-10-03T03:28:36.381Z,90.90
2018-10-03T03:31:03.717Z,91.00
2018-10-03T03:33:31.074Z,91.30
2018-10-03T03:35:58.435Z,91.30
2018-10-03T03:38:25.752Z,91.20
2018-10-03T03:40:53.068Z,91.50
2018-10-03T03:43:20.849Z,91.80
2018-10-03T03:45:48.226Z,91.90
2018-10-03T03:48:15.589Z,92.30
2018-10-03T03:50:42.921Z,92.50
2018-10-03T03:53:10.243Z,92.30
2018-10-03T03:55:37.585Z,92.30
2018-10-03T03:58:05.552Z,92.10
2018-10-03T04:00:32.888Z,91.80
2018-10-03T04:03:00.237Z,91.80
2018-10-03T04:05:27.615Z,92.00
2018-10-03T04:07:54.951Z,92.20
2018-10-03T04:10:22.308Z,92.20
2018-10-03T04:12:49.734Z,92.30
2018-10-03T04:15:17.061Z,92.10
2018-10-03T04:17:44.411Z,92.10
2018-10-03T04:20:11.732Z,92.00
2018-10-03T04:22:39.115Z,92.00
2018-10-03T04:25:06.517Z,92.00
2018-10-03T04:27:34.100Z,92.00
2018-10-03T04:30:01.510Z,91.90
2018-10-03T04:32:28.812Z,91.80
2018-10-03T04:34:56.151Z,91.80
2018-10-03T04:37:23.490Z,91.50
2018-10-03T04:39:50.816Z,91.30
2018-10-03T04:42:18.246Z,91.50
2018-10-03T04:44:45.876Z,91.30
2018-10-03T04:47:13.273Z,90.70
2018-10-03T04:49:40.944Z,90.00
2018-10-03T04:52:08.409Z,89.40
2018-10-03T04:54:35.901Z,89.10
2018-10-03T04:57:03.260Z,89.40
2018-10-03T04:59:30.574Z,89.50
2018-10-03T05:01:57.912Z,90.20
2018-10-03T05:04:25.243Z,90.40
2018-10-03T05:06:52.755Z,90.70
2018-10-03T05:09:20.256Z,91.10
2018-10-03T05:11:47.605Z,91.20
2018-10-03T05:14:14.956Z,91.10
2018-10-03T05:16:42.360Z,91.20
2018-10-03T05:19:09.700Z,91.00
2018-10-03T05:21:37.112Z,91.00
2018-10-03T05:24:04.420Z,91.00
2018-10-03T05:26:31.768Z,91.00
2018-10-03T05:28:59.092Z,91.20
2018-10-03T05:31:26.424Z,91.50
2018-10-03T05:33:53.744Z,91.50
2018-10-03T05:36:22.224Z,90.60
2018-10-03T05:38:49.556Z,89.80
2018-10-03T05:41:16.979Z,90.20
2018-10-03T05:43:46.313Z,90.60
2018-10-03T05:46:13.760Z,90.60
2018-10-03T05:48:41.170Z,90.30
2018-10-03T05:51:08.428Z,90.10
2018-10-03T05:53:35.784Z,90.60
2018-10-03T05:56:03.082Z,90.90
2018-10-03T05:58:30.387Z,91.00
2018-10-03T06:00:57.760Z,90.80
2018-10-03T06:03:25.081Z,90.10
2018-10-03T06:05:52.393Z,90.10
2018-10-03T06:08:19.872Z,89.80
2018-10-03T06:10:47.208Z,89.60
2018-10-03T06:13:14.520Z,89.20
2018-10-03T06:15:41.944Z,88.80
2018-10-03T06:18:09.255Z,88.80
2018-10-03T06:20:36.580Z,88.90
2018-10-03T06:23:03.919Z,89.10
2018-10-03T06:25:31.236Z,88.70
2018-10-03T06:27:58.742Z,87.90
2018-10-03T06:30:25.888Z,87.80
2018-10-03T06:32:53.206Z,87.90
2018-10-03T06:35:20.666Z,87.70
2018-10-03T06:37:48.005Z,87.70
2018-10-03T06:40:15.394Z,87.20
2018-10-03T06:42:42.664Z,86.90
2018-10-03T06:45:10.056Z,86.40
2018-10-03T06:47:37.441Z,86.30
2018-10-03T06:50:04.760Z,86.30
2018-10-03T06:52:32.104Z,86.50
2018-10-03T06:54:59.480Z,86.20
2018-10-03T06:57:26.811Z,86.10
2018-10-03T06:59:54.124Z,86.30
2018-10-03T07:02:21.479Z,86.20
2018-10-03T07:04:48.801Z,86.10
2018-10-03T07:07:16.137Z,86.10
2018-10-03T07:09:43.550Z,85.90
2018-10-03T07:12:10.866Z,85.70
2018-10-03T07:14:38.249Z,85.70
2018-10-03T07:17:05.939Z,85.40
2018-10-03T07:19:33.340Z,84.90
2018-10-03T07:22:00.671Z,84.60
2018-10-03T07:24:27.975Z,84.50
2018-10-03T07:26:55.297Z,84.20
2018-10-03T07:29:22.685Z,84.10
2018-10-03T07:31:50.368Z,83.90
2018-10-03T07:34:17.716Z,84.10
2018-10-03T07:36:45.040Z,84.40
2018-10-03T07:39:12.408Z,84.50
2018-10-03T07:41:40.304Z,84.80
2018-10-03T07:44:07.709Z,83.90
2018-10-03T07:46:35.232Z,83.90
2018-10-03T07:49:02.555Z,84.10
2018-10-03T07:51:29.923Z,83.60
2018-10-03T07:53:57.574Z,83.00
2018-10-03T07:56:25.012Z,83.10
2018-10-03T07:58:52.536Z,81.80
2018-10-03T08:01:19.891Z,81.90
2018-10-03T08:03:47.275Z,81.10
2018-10-03T08:06:14.659Z,80.60
2018-10-03T08:08:41.999Z,79.30
2018-10-03T08:11:09.313Z,77.40
2018-10-03T08:13:36.624Z,77.40
2018-10-03T08:16:03.987Z,77.60
2018-10-03T08:18:31.339Z,77.30
2018-10-03T08:20:58.641Z,76.30
2018-10-03T08:23:25.972Z,76.50
2018-10-03T08:25:53.292Z,76.00
2018-10-03T08:28:20.636Z,75.70
2018-10-03T08:30:47.952Z,74.90
2018-10-03T08:33:15.336Z,74.70
2018-10-03T08:35:42.612Z,72.70
2018-10-03T08:38:09.959Z,73.70
2018-10-03T08:40:37.501Z,71.30
2018-10-03T08:43:08.981Z,71.00
2018-10-03T08:45:36.849Z,72.50
2018-10-03T08:48:04.112Z,71.70
2018-10-03T08:50:31.491Z,71.80
2018-10-03T08:52:58.796Z,72.10
2018-10-03T08:55:26.111Z,72.30
2018-10-03T08:57:53.441Z,72.60
2018-10-03T09:00:21.351Z,72.70
2018-10-03T09:02:48.808Z,72.70
2018-10-03T09:05:16.156Z,73.20
2018-10-03T09:07:43.496Z,72.50
2018-10-03T09:10:10.884Z,72.40
2018-10-03T09:12:38.372Z,72.10
2018-10-03T09:15:06.052Z,72.70
2018-10-03T09:17:33.372Z,73.90
2018-10-03T09:20:00.699Z,72.90
2018-10-03T09:22:28.132Z,74.00
2018-10-03T09:24:55.445Z,73.10
2018-10-03T09:27:22.787Z,73.40
2018-10-03T09:29:50.177Z,72.90
2018-10-03T09:32:17.516Z,73.60
2018-10-03T09:34:47.577Z,72.50
2018-10-03T09:37:14.912Z,71.00
2018-10-03T09:39:42.331Z,71.10
2018-10-03T09:42:09.640Z,70.70
2018-10-03T09:44:37.011Z,70.40
2018-10-03T09:47:04.311Z,70.40
2018-10-03T09:49:32.196Z,70.40
2018-10-03T09:51:59.644Z,71.00
2018-10-03T09:54:27.112Z,71.10
2018-10-03T09:56:55.162Z,70.30
2018-10-03T09:59:22.724Z,70.90
2018-10-03T10:01:50.137Z,70.20
2018-10-03T10:04:17.471Z,70.30
2018-10-03T10:06:44.868Z,69.50
2018-10-03T10:09:12.308Z,69.10
2018-10-03T10:11:39.845Z,68.70
2018-10-03T10:14:06.979Z,69.10
2018-10-03T10:16:34.388Z,70.20
2018-10-03T10:19:01.692Z,69.80
2018-10-03T10:21:29.028Z,69.80
2018-10-03T10:23:56.394Z,69.70
2018-10-03T10:26:23.708Z,69.10
2018-10-03T10:28:51.027Z,70.20
2018-10-03T10:31:18.371Z,69.70
2018-10-03T10:33:45.704Z,68.50
2018-10-03T10:36:13.144Z,69.10
2018-10-03T10:38:40.484Z,68.30
2018-10-03T10:41:07.848Z,68.00
2018-10-03T10:43:35.197Z,67.90
2018-10-03T10:46:02.505Z,67.70
2018-10-03T10:48:29.907Z,69.10
2018-10-03T10:50:57.220Z,68.70
2018-10-03T10:53:24.556Z,68.50
2018-10-03T10:55:51.871Z,69.30
2018-10-03T10:58:21.939Z,69.30
2018-10-03T11:00:49.356Z,68.40
2018-10-03T11:03:16.679Z,67.80
2018-10-03T11:05:44.005Z,66.80
2018-10-03T11:08:11.313Z,66.60
2018-10-03T11:10:38.642Z,66.30
2018-10-03T11:13:06.376Z,65.50
2018-10-03T11:15:33.727Z,65.50
2018-10-03T11:18:01.012Z,65.40
2018-10-03T11:20:28.356Z,64.60
2018-10-03T11:22:55.677Z,64.70
2018-10-03T11:25:23.018Z,63.80
2018-10-03T11:27:50.476Z,63.50
2018-10-03T11:30:17.821Z,63.80
2018-10-03T11:32:45.164Z,64.00
2018-10-03T11:35:12.536Z,63.10
2018-10-03T11:37:39.888Z,63.80
2018-10-03T11:40:07.209Z,64.10
2018-10-03T11:42:34.957Z,63.30
2018-10-03T11:45:02.281Z,63.70
2018-10-03T11:47:29.618Z,64.20
2018-10-03T11:49:56.920Z,64.30
2018-10-03T11:52:24.261Z,63.90
2018-10-03T11:54:51.621Z,63.70
2018-10-03T11:57:18.980Z,64.10
2018-10-03T11:59:46.293Z,63.90
2018-10-03T12:02:13.641Z,64.10
2018-10-03T12:04:40.966Z,64.40
2018-10-03T12:07:08.297Z,64.40
2018-10-03T12:09:35.673Z,64.90
2018-10-03T12:12:03.005Z,64.40
2018-10-03T12:14:30.329Z,64.90
2018-10-03T12:16:57.643Z,64.50
2018-10-03T12:19:25.217Z,64.60
2018-10-03T12:21:52.515Z,64.00
2018-10-03T12:24:19.850Z,63.50
2018-10-03T12:26:47.170Z,63.60
2018-10-03T12:29:14.505Z,63.90
2018-10-03T12:31:41.837Z,63.10
2018-10-03T12:34:09.171Z,62.40
2018-10-03T12:36:36.521Z,61.90
2018-10-03T12:39:06.627Z,62.10
2018-10-03T12:41:33.994Z,62.00
2018-10-03T12:44:01.300Z,62.10
2018-10-03T12:46:28.636Z,61.90
2018-10-03T12:48:55.984Z,61.70
2018-10-03T12:51:23.339Z,62.00
2018-10-03T12:53:50.669Z,61.60
2018-10-03T12:56:17.982Z,60.50
2018-10-03T12:58:45.351Z,60.60
2018-10-03T13:01:12.717Z,62.10
2018-10-03T13:03:39.997Z,63.20
2018-10-03T13:06:07.331Z,62.50
2018-10-03T13:08:34.659Z,61.80
2018-10-03T13:11:01.996Z,62.20
2018-10-03T13:13:29.321Z,62.70
2018-10-03T13:15:56.630Z,62.70
2018-10-03T13:18:23.968Z,63.00
2018-10-03T13:20:51.292Z,63.40
2018-10-03T13:23:18.621Z,62.80
2018-10-03T13:25:45.978Z,62.10
2018-10-03T13:28:13.328Z,62.30
2018-10-03T13:30:40.743Z,61.70
2018-10-03T13:33:08.042Z,61.60
2018-10-03T13:35:35.362Z,60.80
2018-10-03T13:38:02.744Z,61.80
2018-10-03T13:40:30.079Z,61.60
2018-10-03T13:42:57.429Z,60.30
2018-10-03T13:45:24.740Z,60.70
2018-10-03T13:47:52.057Z,60.10
2018-10-03T13:50:19.403Z,59.10
2018-10-03T13:52:46.708Z,59.60
2018-10-03T13:55:14.023Z,59.10
2018-10-03T13:57:41.356Z,59.10
2018-10-03T14:00:08.683Z,59.90
2018-10-03T14:02:36.009Z,59.80
2018-10-03T14:05:03.329Z,59.10
2018-10-03T14:07:30.670Z,59.60
2018-10-03T14:09:57.980Z,59.70
2018-10-03T14:12:25.284Z,59.30
2018-10-03T14:14:52.625Z,59.70
2018-10-03T14:17:19.951Z,60.70
2018-10-03T14:19:47.271Z,60.50
2018-10-03T14:22:14.586Z,61.00
2018-10-03T14:24:41.915Z,61.10
2018-10-03T14:27:09.217Z,60.40
2018-10-03T14:29:36.546Z,60.40
2018-10-03T14:32:03.856Z,60.30
2018-10-03T14:34:31.176Z,60.40
2018-10-03T14:36:58.508Z,60.30
2018-10-03T14:39:25.832Z,60.60
2018-10-03T14:41:53.131Z,59.80
2018-10-03T14:44:20.450Z,59.70
2018-10-03T14:46:47.900Z,59.40
2018-10-03T14:49:15.156Z,60.10
2018-10-03T14:51:42.508Z,60.90
2018-10-03T14:54:09.808Z,60.60
2018-10-03T14:56:37.116Z,61.20
2018-10-03T14:59:04.432Z,61.20
2018-10-03T15:01:31.828Z,61.00
2018-10-03T15:03:59.089Z,60.80
2018-10-03T15:06:26.383Z,60.90
2018-10-03T15:08:53.736Z,61.00
2018-10-03T15:11:21.124Z,60.50
2018-10-03T15:13:48.439Z,60.50
2018-10-03T15:16:15.744Z,60.70
2018-10-03T15:18:43.060Z,60.70
2018-10-03T15:21:10.403Z,60.00
2018-10-03T15:23:37.716Z,60.10
2018-10-03T15:26:05.316Z,60.00
2018-10-03T15:28:32.857Z,60.30
2018-10-03T15:31:02.939Z,60.20
2018-10-03T15:33:30.408Z,60.50
2018-10-03T15:35:57.728Z,61.00
2018-10-03T15:38:25.084Z,61.10
2018-10-03T15:40:52.993Z,61.30
2018-10-03T15:43:22.720Z,60.10
2018-10-03T15:45:50.029Z,60.30
2018-10-03T15:48:17.963Z,60.40
2018-10-03T15:50:45.215Z,60.50
2018-10-03T15:53:12.572Z,61.00
2018-10-03T15:55:39.895Z,60.70
2018-10-03T15:58:07.233Z,60.70
2018-10-03T16:00:34.543Z,61.10
2018-10-03T16:03:01.864Z,61.00
2018-10-03T16:05:29.189Z,61.10
2018-10-03T16:07:56.530Z,60.90
2018-10-03T16:10:23.835Z,61.00
2018-10-03T16:12:51.153Z,61.00
2018-10-03T16:15:18.512Z,61.30
2018-10-03T16:17:45.849Z,61.10
2018-10-03T16:20:13.181Z,61.40
2018-10-03T16:22:40.493Z,61.60
2018-10-03T16:25:07.800Z,61.50
2018-10-03T16:27:35.593Z,61.60
2018-10-03T16:30:02.936Z,61.50
2018-10-03T16:32:30.380Z,62.00
2018-10-03T16:34:57.620Z,60.80
2018-10-03T16:37:24.953Z,61.90
2018-10-03T16:39:52.282Z,61.60
2018-10-03T16:42:19.658Z,61.60
2018-10-03T16:44:46.979Z,61.80
2018-10-03T16:47:14.293Z,61.80
2018-10-03T16:49:41.607Z,61.80
2018-10-03T16:52:08.924Z,62.00
2018-10-03T16:54:36.268Z,62.30
2018-10-03T16:57:03.623Z,62.40
2018-10-03T16:59:30.967Z,62.70
2018-10-03T17:01:58.300Z,63.00
2018-10-03T17:04:25.601Z,63.30
2018-10-03T17:06:52.949Z,63.30
2018-10-03T17:09:20.235Z,63.50
2018-10-03T17:11:47.564Z,63.80
2018-10-03T17:14:22.524Z,63.80
2018-10-03T17:16:49.856Z,64.20
2018-10-03T17:19:17.808Z,64.90
2018-10-03T17:21:45.114Z,64.90
2018-10-03T17:24:12.434Z,64.90
2018-10-03T17:26:39.752Z,65.40
2018-10-03T17:29:07.060Z,65.20
2018-10-03T17:31:34.410Z,65.60
2018-10-03T17:34:01.765Z,66.00
2018-10-03T17:36:29.021Z,66.00
2018-10-03T17:38:56.344Z,66.50
2018-10-03T17:41:23.658Z,67.20
2018-10-03T17:43:50.978Z,67.20
2018-10-03T17:46:18.868Z,67.40
2018-10-03T17:48:46.187Z,68.10
2018-10-03T17:51:13.504Z,68.30
2018-10-03T17:53:40.839Z,68.50
2018-10-03T17:56:08.153Z,69.00
2018-10-03T17:58:37.134Z,69.20
2018-10-03T18:01:04.592Z,69.40
2018-10-03T18:03:31.912Z,69.70
2018-10-03T18:05:59.242Z,69.80
2018-10-03T18:08:26.548Z,70.00
2018-10-03T18:10:53.877Z,70.20
2018-10-03T18:13:21.206Z,70.60
2018-10-03T18:15:48.562Z,70.90
2018-10-03T18:18:15.836Z,71.80
2018-10-03T18:20:43.140Z,72.10
2018-10-03T18:23:10.496Z,72.50
2018-10-03T18:25:37.849Z,72.60
2018-10-03T18:28:05.152Z,73.00
2018-10-03T18:30:32.468Z,73.20
2018-10-03T18:32:59.808Z,73.90
2018-10-03T18:35:27.096Z,74.30
2018-10-03T18:37:54.471Z,74.30
2018-10-03T18:40:21.831Z,74.20
2018-10-03T18:42:49.136Z,74.20
2018-10-03T18:45:16.452Z,74.50
2018-10-03T18:47:43.795Z,74.50
2018-10-03T18:50:11.145Z,74.40
2018-10-03T18:52:38.421Z,74.60
2018-10-03T18:55:05.816Z,74.60
2018-10-03T18:57:33.160Z,74.60
2018-10-03T19:00:00.481Z,74.70
2018-10-03T19:02:27.832Z,74.70
2018-10-03T19:04:55.225Z,74.50
2018-10-03T19:07:22.564Z,74.80
2018-10-03T19:09:49.892Z,75.20
2018-10-03T19:12:17.356Z,75.10
2018-10-03T19:14:44.576Z,75.20
2018-10-03T19:17:11.920Z,75.40
2018-10-03T19:19:39.330Z,75.70
2018-10-03T19:22:07.063Z,75.90
2018-10-03T19:24:34.382Z,76.10
2018-10-03T19:27:02.095Z,76.20
2018-10-03T19:29:29.439Z,76.30
2018-10-03T19:31:56.758Z,76.30
2018-10-03T19:34:24.181Z,76.60
2018-10-03T19:36:51.609Z,76.80
2018-10-03T19:39:18.917Z,76.80
2018-10-03T19:41:46.252Z,76.90
2018-10-03T19:44:13.593Z,77.30
2018-10-03T19:46:40.915Z,78.20
2018-10-03T19:49:08.241Z,78.30
2018-10-03T19:51:35.569Z,77.80
2018-10-03T19:54:02.889Z,78.20
2018-10-03T19:56:30.276Z,78.00
2018-10-03T19:58:57.629Z,78.00
2018-10-03T20:01:24.967Z,78.00
2018-10-03T20:03:52.298Z,78.40
2018-10-03T20:06:19.955Z,78.90
2018-10-03T20:08:47.261Z,79.00
2018-10-03T20:11:14.609Z,79.40
2018-10-03T20:13:41.958Z,79.40
2018-10-03T20:16:09.247Z,79.40
2018-10-03T20:18:36.840Z,79.60
2018-10-03T20:21:04.345Z,79.30
2018-10-03T20:23:31.599Z,78.60
2018-10-03T20:25:59.500Z,78.50
2018-10-03T20:28:26.901Z,78.70
2018-10-03T20:30:54.144Z,78.80
2018-10-03T20:33:21.462Z,78.90
2018-10-03T20:35:48.776Z,79.30
2018-10-03T20:38:16.088Z,79.90
2018-10-03T20:40:43.432Z,80.10
2018-10-03T20:43:11.013Z,80.60
2018-10-03T20:45:38.556Z,81.00
2018-10-03T20:48:05.897Z,81.20
2018-10-03T20:50:33.172Z,81.00
2018-10-03T20:53:00.502Z,80.70
2018-10-03T20:55:27.827Z,80.70
2018-10-03T20:57:55.148Z,80.30
2018-10-03T21:00:22.581Z,79.60
2018-10-03T21:02:49.816Z,79.50
2018-10-03T21:05:17.119Z,79.60
2018-10-03T21:07:45.204Z,78.60
2018-10-03T21:10:12.518Z,77.80
2018-10-03T21:12:39.928Z,78.20
2018-10-03T21:15:07.264Z,78.30
2018-10-03T21:17:34.851Z,78.50
2018-10-03T21:20:02.216Z,78.70
2018-10-03T21:22:29.604Z,78.70
2018-10-03T21:24:56.978Z,78.90
2018-10-03T21:27:24.236Z,79.30
2018-10-03T21:29:51.825Z,79.40
2018-10-03T21:32:19.204Z,79.60
2018-10-03T21:34:46.505Z,79.80
2018-10-03T21:37:13.836Z,79.90
2018-10-03T21:39:41.159Z,79.50
2018-10-03T21:42:08.506Z,79.20
2018-10-03T21:44:36.040Z,79.30
2018-10-03T21:47:03.442Z,79.30
2018-10-03T21:49:30.779Z,79.70
2018-10-03T21:51:58.195Z,79.20
2018-10-03T21:54:25.526Z,79.80
2018-10-03T21:56:52.837Z,79.50
2018-10-03T21:59:20.344Z,79.30
2018-10-03T22:01:47.653Z,79.50
2018-10-03T22:04:15.094Z,79.30
2018-10-03T22:06:42.863Z,78.90
2018-10-03T22:09:10.268Z,79.30
2018-10-03T22:11:37.655Z,79.50
2018-10-03T22:14:05.004Z,79.20
2018-10-03T22:16:32.334Z,79.60
2018-10-03T22:18:59.677Z,79.80
2018-10-03T22:21:27.015Z,80.10
2018-10-03T22:23:54.350Z,80.00
2018-10-03T22:26:21.676Z,79.90
2018-10-03T22:28:49.016Z,79.40
2018-10-03T22:31:16.344Z,79.00
2018-10-03T22:33:43.685Z,79.20
2018-10-03T22:36:11.103Z,79.80
2018-10-03T22:38:38.425Z,80.00
2018-10-03T22:41:05.764Z,80.40
2018-10-03T22:43:33.101Z,80.40
2018-10-03T22:46:00.440Z,80.40
2018-10-03T22:48:27.804Z,80.70
2018-10-03T22:50:55.151Z,80.70
2018-10-03T22:53:22.881Z,80.70
2018-10-03T22:55:51.145Z,80.90
2018-10-03T22:58:18.489Z,81.10
2018-10-03T23:00:46.332Z,81.00
2018-10-03T23:03:13.650Z,80.80
2018-10-03T23:05:40.989Z,80.60
2018-10-03T23:08:08.324Z,80.20
2018-10-03T23:10:35.648Z,80.50
2018-10-03T23:13:02.967Z,80.50
2018-10-03T23:15:30.288Z,80.90
2018-10-03T23:17:57.612Z,81.00
2018-10-03T23:20:33.832Z,81.00
2018-10-03T23:23:06.696Z,80.90
2018-10-03T23:25:36.786Z,81.30
2018-10-03T23:28:08.679Z,81.20
2018-10-03T23:30:40.916Z,81.10
2018-10-03T23:33:21.146Z,80.90
2018-10-03T23:35:54.635Z,80.90
2018-10-03T23:38:28.615Z,81.30
2018-10-03T23:40:57.409Z,81.10
2018-10-03T23:43:27.677Z,80.50
2018-10-03T23:45:55.010Z,81.30
2018-10-03T23:48:22.656Z,81.20
2018-10-03T23:50:49.993Z,80.80
2018-10-03T23:53:17.313Z,81.10
2018-10-03T23:55:44.661Z,81.60
2018-10-03T23:58:11.990Z,81.90
